createdAt,value
2022-11-03T00:03:34.420Z,80.08
2022-11-03T00:08:41.049Z,80.20
2022-11-03T00:13:43.646Z,80.46
2022-11-03T00:18:45.163Z,80.77
2022-11-03T00:23:46.953Z,80.42
2022-11-03T00:28:50.289Z,79.88
2022-11-03T00:33:52.092Z,80.73
2022-11-03T00:38:53.726Z,81.07
2022-11-03T00:43:55.477Z,80.21
2022-11-03T00:48:57.040Z,80.31
2022-11-03T00:54:00.595Z,80.45
2022-11-03T00:59:02.699Z,80.53
2022-11-03T01:04:23.199Z,80.21
2022-11-03T01:09:30.649Z,82.20
2022-11-03T01:14:33.460Z,82.11
2022-11-03T01:19:35.130Z,81.53
2022-11-03T01:24:36.718Z,80.92
2022-11-03T01:29:38.267Z,82.61
2022-11-03T01:34:40.059Z,82.13
2022-11-03T01:39:41.547Z,82.29
2022-11-03T01:44:49.025Z,81.67
2022-11-03T01:49:53.159Z,81.01
2022-11-03T01:55:01.103Z,81.13
2022-11-03T02:00:04.991Z,81.47
2022-11-03T02:05:15.667Z,80.22
2022-11-03T02:10:17.747Z,81.02
2022-11-03T02:15:21.603Z,82.70
2022-11-03T02:20:25.699Z,83.59
2022-11-03T02:25:49.914Z,83.37
2022-11-03T02:30:57.522Z,81.88
2022-11-03T02:36:07.068Z,82.85
2022-11-03T02:41:09.420Z,81.97
2022-11-03T02:46:11.876Z,81.85
2022-11-03T02:51:13.400Z,81.54
2022-11-03T02:56:18.257Z,81.82
2022-11-03T03:01:32.542Z,82.40
2022-11-03T03:06:40.490Z,82.45
2022-11-03T03:11:43.071Z,81.91
2022-11-03T03:16:52.299Z,82.84
2022-11-03T03:21:54.729Z,82.86
2022-11-03T03:26:59.019Z,82.58
2022-11-03T03:32:03.870Z,83.59
2022-11-03T03:37:06.092Z,82.58
2022-11-03T03:42:10.040Z,83.56
2022-11-03T03:47:32.355Z,82.17
2022-11-03T03:52:34.804Z,82.16
2022-11-03T03:57:36.292Z,82.15
2022-11-03T04:02:37.856Z,81.89
2022-11-03T04:07:48.315Z,82.15
2022-11-03T04:13:08.893Z,82.15
2022-11-03T04:18:29.001Z,83.75
2022-11-03T04:23:30.497Z,83.39
2022-11-03T04:28:32.060Z,82.61
2022-11-03T04:33:33.626Z,82.22
2022-11-03T04:38:35.180Z,83.60
2022-11-03T04:43:37.910Z,84.25
2022-11-03T04:48:39.566Z,82.89
2022-11-03T04:53:51.986Z,84.25
2022-11-03T04:58:53.923Z,83.62
2022-11-03T05:03:55.584Z,83.95
2022-11-03T05:09:07.910Z,83.68
2022-11-03T05:14:21.300Z,84.38
2022-11-03T05:19:26.021Z,84.80
2022-11-03T05:24:27.781Z,85.30
2022-11-03T05:29:37.175Z,86.27
2022-11-03T05:34:42.590Z,86.49
2022-11-03T05:39:46.510Z,84.39
2022-11-03T05:44:48.646Z,83.53
2022-11-03T05:49:53.040Z,83.17
2022-11-03T05:54:56.168Z,83.11
2022-11-03T05:59:57.695Z,83.64
2022-11-03T06:04:59.373Z,82.90
2022-11-03T06:10:00.900Z,82.91
2022-11-03T06:15:09.067Z,83.43
2022-11-03T06:20:16.685Z,84.14
2022-11-03T06:25:26.882Z,84.35
2022-11-03T06:30:32.771Z,84.72
2022-11-03T06:35:34.973Z,84.62
2022-11-03T06:40:37.147Z,85.31
2022-11-03T06:45:38.743Z,86.20
2022-11-03T06:50:44.739Z,86.14
2022-11-03T06:55:47.181Z,84.80
2022-11-03T07:00:51.243Z,84.32
2022-11-03T07:05:58.198Z,84.89
2022-11-03T07:11:20.366Z,85.06
2022-11-03T07:16:35.480Z,84.95
2022-11-03T07:21:41.138Z,84.99
2022-11-03T07:26:42.656Z,84.83
2022-11-03T07:31:44.263Z,85.04
2022-11-03T07:36:46.246Z,84.50
2022-11-03T07:41:50.892Z,83.52
2022-11-03T07:46:52.465Z,82.83
2022-11-03T07:51:55.585Z,82.15
2022-11-03T07:57:03.576Z,81.90
2022-11-03T08:02:34.737Z,81.69
2022-11-03T08:07:36.291Z,80.71
2022-11-03T08:12:37.820Z,80.73
2022-11-03T08:17:39.352Z,80.59
2022-11-03T08:22:46.104Z,79.44
2022-11-03T08:27:51.488Z,78.67
2022-11-03T08:32:52.976Z,78.20
2022-11-03T08:37:55.535Z,78.14
2022-11-03T08:42:57.129Z,77.54
2022-11-03T08:47:58.633Z,78.12
2022-11-03T08:53:00.206Z,78.42
2022-11-03T08:58:01.684Z,77.79
2022-11-03T09:03:03.188Z,77.72
2022-11-03T09:13:26.382Z,76.50
2022-11-03T09:18:27.898Z,77.16
2022-11-03T09:23:29.389Z,76.68
2022-11-03T09:28:30.863Z,76.20
2022-11-03T09:33:32.411Z,75.76
2022-11-03T09:38:33.915Z,75.90
2022-11-03T09:43:38.158Z,75.65
2022-11-03T09:48:39.881Z,75.26
2022-11-03T09:53:41.466Z,75.42
2022-11-03T09:58:42.990Z,75.10
2022-11-03T10:03:44.604Z,74.18
2022-11-03T10:08:46.375Z,74.47
2022-11-03T10:13:52.826Z,73.67
2022-11-03T10:18:54.380Z,73.10
2022-11-03T10:23:55.871Z,72.90
2022-11-03T10:29:06.519Z,71.77
2022-11-03T10:34:39.183Z,71.85
2022-11-03T10:39:40.706Z,70.20
2022-11-03T10:44:42.237Z,69.24
2022-11-03T10:49:44.066Z,69.11
2022-11-03T10:54:45.653Z,68.34
2022-11-03T10:59:49.213Z,66.46
2022-11-03T11:04:56.584Z,66.87
2022-11-03T11:10:25.378Z,65.64
2022-11-03T11:15:35.976Z,65.17
2022-11-03T11:20:39.550Z,65.17
2022-11-03T11:26:09.733Z,64.69
2022-11-03T11:32:07.800Z,64.61
2022-11-03T11:37:18.332Z,64.75
2022-11-03T11:42:21.092Z,65.24
2022-11-03T11:47:24.379Z,65.96
2022-11-03T11:52:26.572Z,65.66
2022-11-03T11:57:30.526Z,65.55
2022-11-03T12:02:32.011Z,65.27
2022-11-03T12:07:34.837Z,65.81
2022-11-03T12:12:36.648Z,65.53
2022-11-03T12:17:38.135Z,65.29
2022-11-03T12:22:41.504Z,66.01
2022-11-03T12:27:43.437Z,65.16
2022-11-03T12:32:45.910Z,65.94
2022-11-03T12:37:47.519Z,64.79
2022-11-03T12:42:49.031Z,65.51
2022-11-03T12:47:50.516Z,65.90
2022-11-03T12:52:52.015Z,66.25
2022-11-03T12:57:53.525Z,65.54
2022-11-03T13:02:55.187Z,66.18
2022-11-03T13:07:56.719Z,66.18
2022-11-03T13:12:58.251Z,66.43
2022-11-03T13:18:12.857Z,66.91
2022-11-03T13:23:17.408Z,66.47
2022-11-03T13:28:21.851Z,66.73
2022-11-03T13:33:23.404Z,66.70
2022-11-03T13:38:24.955Z,67.10
2022-11-03T13:43:26.481Z,67.32
2022-11-03T13:59:27.529Z,68.26
2022-11-03T14:04:45.312Z,68.38
2022-11-03T14:09:47.025Z,68.40
2022-11-03T14:14:48.538Z,68.93
2022-11-03T14:19:52.833Z,69.11
2022-11-03T14:24:55.027Z,68.99
2022-11-03T14:29:56.520Z,69.28
2022-11-03T14:34:58.238Z,69.76
2022-11-03T14:39:59.996Z,70.51
2022-11-03T14:45:01.576Z,70.90
2022-11-03T14:50:03.457Z,71.10
2022-11-03T14:55:05.541Z,71.66
2022-11-03T15:00:07.861Z,72.28
2022-11-03T15:05:29.365Z,72.46
2022-11-03T15:10:30.909Z,72.97
2022-11-03T15:15:32.497Z,72.95
2022-11-03T15:20:36.773Z,72.89
2022-11-03T15:25:38.287Z,73.51
2022-11-03T15:30:39.904Z,73.60
2022-11-03T15:35:41.685Z,73.72
2022-11-03T15:40:43.206Z,74.11
2022-11-03T15:45:44.688Z,74.20
2022-11-03T15:50:46.185Z,74.42
2022-11-03T15:55:47.720Z,74.44
2022-11-03T16:00:49.283Z,74.83
2022-11-03T16:05:50.869Z,75.06
2022-11-03T16:10:57.635Z,75.19
2022-11-03T16:15:59.847Z,75.66
2022-11-03T16:21:01.374Z,76.10
2022-11-03T16:26:05.190Z,75.74
2022-11-03T16:31:06.687Z,76.48
2022-11-03T16:36:08.235Z,76.73
2022-11-03T16:41:09.717Z,76.80
2022-11-03T16:46:11.204Z,76.82
2022-11-03T16:51:12.702Z,76.90
2022-11-03T16:56:14.193Z,77.06
2022-11-03T17:01:15.749Z,77.76
2022-11-03T17:06:17.332Z,77.43
2022-11-03T17:11:35.721Z,77.70
2022-11-03T17:16:37.525Z,77.93
2022-11-03T17:21:39.059Z,78.24
2022-11-03T17:26:53.999Z,78.39
2022-11-03T17:31:55.728Z,78.49
2022-11-03T17:36:57.900Z,78.87
2022-11-03T17:42:16.035Z,78.90
2022-11-03T17:47:18.879Z,79.46
2022-11-03T17:52:29.401Z,79.59
2022-11-03T17:57:31.127Z,79.52
2022-11-03T18:02:40.602Z,79.73
2022-11-03T18:07:42.807Z,79.88
2022-11-03T18:13:05.450Z,80.12
2022-11-03T18:18:13.434Z,80.37
2022-11-03T18:23:18.342Z,80.41
2022-11-03T18:28:20.084Z,80.63
2022-11-03T18:33:33.151Z,80.95
2022-11-03T18:38:36.299Z,81.19
2022-11-03T18:43:37.918Z,81.34
2022-11-03T18:48:39.459Z,81.18
2022-11-03T18:53:41.276Z,81.44
2022-11-03T18:58:42.784Z,81.51
2022-11-03T19:03:44.266Z,81.69
2022-11-03T19:08:46.042Z,81.55
2022-11-03T19:13:47.998Z,81.46
2022-11-03T19:18:50.593Z,81.57
2022-11-03T19:23:58.018Z,81.72
2022-11-03T19:29:05.790Z,81.71
2022-11-03T19:34:08.604Z,81.77
2022-11-03T19:39:36.939Z,81.83
2022-11-03T19:44:38.671Z,82.19
2022-11-03T19:49:40.182Z,82.30
2022-11-03T19:54:43.385Z,82.42
2022-11-03T19:59:45.496Z,82.35
2022-11-03T20:04:47.415Z,82.50
2022-11-03T20:09:49.002Z,82.56
2022-11-03T20:14:50.564Z,82.77
2022-11-03T20:19:53.227Z,82.88
2022-11-03T20:24:58.377Z,82.89
2022-11-03T20:29:59.895Z,82.96
2022-11-03T20:35:01.409Z,83.33
2022-11-03T20:40:02.991Z,83.39
2022-11-03T20:45:13.650Z,83.54
2022-11-03T20:50:17.015Z,83.54
2022-11-03T20:55:25.245Z,83.55
2022-11-03T21:00:28.196Z,83.67
2022-11-03T21:05:29.737Z,83.32
2022-11-03T21:10:31.311Z,83.51
2022-11-03T21:16:10.868Z,84.43
2022-11-03T21:21:18.145Z,83.97
2022-11-03T21:26:22.190Z,83.51
2022-11-03T21:31:24.100Z,83.82
2022-11-03T21:36:25.634Z,83.78
2022-11-03T21:41:45.808Z,83.84
2022-11-03T21:46:47.375Z,83.91
2022-11-03T21:51:48.890Z,83.36
2022-11-03T21:56:50.544Z,83.47
2022-11-03T22:01:55.029Z,83.40
2022-11-03T22:06:57.974Z,83.41
2022-11-03T22:11:59.455Z,83.63
2022-11-03T22:22:30.922Z,83.44
2022-11-03T22:27:33.675Z,83.28
2022-11-03T22:32:35.661Z,83.26
2022-11-03T22:42:56.201Z,83.74
2022-11-03T22:47:57.891Z,83.58
2022-11-03T22:52:59.440Z,83.39
2022-11-03T22:58:00.933Z,83.53
2022-11-03T23:03:02.407Z,83.25
2022-11-03T23:08:04.023Z,83.50
2022-11-03T23:13:05.851Z,82.88
2022-11-03T23:18:26.199Z,83.27
2022-11-03T23:23:46.236Z,83.29
2022-11-03T23:28:47.773Z,83.39
2022-11-03T23:33:49.399Z,83.25
2022-11-03T23:38:50.964Z,83.56
2022-11-03T23:43:52.807Z,83.69
2022-11-03T23:48:54.662Z,83.35
2022-11-03T23:53:57.019Z,83.54
2022-11-03T23:58:59.010Z,83.61
